sensor_id;sensor_type;location;lat;lon;timestamp;P1;durP1;ratioP1;P2;durP2;ratioP2
62554;SDS011;48610;52.144;8.624;2023-04-25T00:00:23;18.27;;;5.45;;
62554;SDS011;48610;52.144;8.624;2023-04-25T00:03:24;13.07;;;4.97;;
62554;SDS011;48610;52.144;8.624;2023-04-25T00:06:25;12.65;;;5.18;;
62554;SDS011;48610;52.144;8.624;2023-04-25T00:09:26;13.20;;;5.50;;
62554;SDS011;48610;52.144;8.624;2023-04-25T00:12:27;16.33;;;5.60;;
62554;SDS011;48610;52.144;8.624;2023-04-25T00:15:30;18.20;;;4.93;;
62554;SDS011;48610;52.144;8.624;2023-04-25T00:18:31;9.52;;;5.22;;
62554;SDS011;48610;52.144;8.624;2023-04-25T00:21:33;25.83;;;5.88;;
62554;SDS011;48610;52.144;8.624;2023-04-25T00:24:33;14.20;;;5.18;;
62554;SDS011;48610;52.144;8.624;2023-04-25T00:27:34;20.45;;;5.72;;
62554;SDS011;48610;52.144;8.624;2023-04-25T00:30:35;9.80;;;5.30;;
62554;SDS011;48610;52.144;8.624;2023-04-25T00:33:35;15.07;;;5.68;;
62554;SDS011;48610;52.144;8.624;2023-04-25T00:36:36;16.08;;;5.60;;
62554;SDS011;48610;52.144;8.624;2023-04-25T00:39:37;13.23;;;5.75;;
62554;SDS011;48610;52.144;8.624;2023-04-25T00:42:37;17.02;;;5.90;;
62554;SDS011;48610;52.144;8.624;2023-04-25T00:45:38;15.10;;;6.25;;
62554;SDS011;48610;52.144;8.624;2023-04-25T00:48:39;21.10;;;6.57;;
62554;SDS011;48610;52.144;8.624;2023-04-25T00:51:40;15.88;;;7.30;;
62554;SDS011;48610;52.144;8.624;2023-04-25T00:54:41;19.85;;;6.82;;
62554;SDS011;48610;52.144;8.624;2023-04-25T00:57:41;20.88;;;6.15;;
62554;SDS011;48610;52.144;8.624;2023-04-25T01:00:43;18.23;;;5.97;;
62554;SDS011;48610;52.144;8.624;2023-04-25T01:03:48;23.80;;;7.30;;
62554;SDS011;48610;52.144;8.624;2023-04-25T01:06:49;22.50;;;6.47;;
62554;SDS011;48610;52.144;8.624;2023-04-25T01:09:51;22.90;;;7.40;;
62554;SDS011;48610;52.144;8.624;2023-04-25T01:12:52;15.10;;;6.30;;
62554;SDS011;48610;52.144;8.624;2023-04-25T01:15:53;15.98;;;6.68;;
62554;SDS011;48610;52.144;8.624;2023-04-25T01:18:54;22.58;;;7.03;;
62554;SDS011;48610;52.144;8.624;2023-04-25T01:21:55;21.55;;;7.00;;
62554;SDS011;48610;52.144;8.624;2023-04-25T01:24:56;18.73;;;7.07;;
62554;SDS011;48610;52.144;8.624;2023-04-25T01:27:57;16.63;;;7.03;;
62554;SDS011;48610;52.144;8.624;2023-04-25T01:30:58;12.82;;;6.30;;
62554;SDS011;48610;52.144;8.624;2023-04-25T01:34:00;15.38;;;7.75;;
62554;SDS011;48610;52.144;8.624;2023-04-25T01:37:00;22.63;;;11.48;;
62554;SDS011;48610;52.144;8.624;2023-04-25T01:40:02;18.45;;;11.10;;
62554;SDS011;48610;52.144;8.624;2023-04-25T01:43:05;14.73;;;9.23;;
62554;SDS011;48610;52.144;8.624;2023-04-25T01:46:08;24.35;;;12.80;;
62554;SDS011;48610;52.144;8.624;2023-04-25T01:49:09;22.02;;;9.07;;
62554;SDS011;48610;52.144;8.624;2023-04-25T01:52:09;18.90;;;9.45;;
62554;SDS011;48610;52.144;8.624;2023-04-25T01:55:10;15.82;;;7.35;;
62554;SDS011;48610;52.144;8.624;2023-04-25T01:58:11;16.83;;;6.75;;
62554;SDS011;48610;52.144;8.624;2023-04-25T02:01:13;14.63;;;5.30;;
62554;SDS011;48610;52.144;8.624;2023-04-25T02:04:13;12.45;;;5.75;;
62554;SDS011;48610;52.144;8.624;2023-04-25T02:07:14;10.82;;;5.38;;
62554;SDS011;48610;52.144;8.624;2023-04-25T02:10:15;15.98;;;5.93;;
62554;SDS011;48610;52.144;8.624;2023-04-25T02:13:16;11.48;;;5.22;;
62554;SDS011;48610;52.144;8.624;2023-04-25T02:16:16;13.63;;;5.70;;
62554;SDS011;48610;52.144;8.624;2023-04-25T02:19:17;10.32;;;4.88;;
62554;SDS011;48610;52.144;8.624;2023-04-25T02:22:18;16.02;;;5.38;;
62554;SDS011;48610;52.144;8.624;2023-04-25T02:25:19;14.88;;;5.03;;
62554;SDS011;48610;52.144;8.624;2023-04-25T02:28:20;15.98;;;4.25;;
62554;SDS011;48610;52.144;8.624;2023-04-25T02:31:21;17.20;;;4.75;;
62554;SDS011;48610;52.144;8.624;2023-04-25T02:34:21;17.70;;;4.65;;
62554;SDS011;48610;52.144;8.624;2023-04-25T02:37:22;15.65;;;4.32;;
62554;SDS011;48610;52.144;8.624;2023-04-25T02:40:23;18.13;;;4.80;;
62554;SDS011;48610;52.144;8.624;2023-04-25T02:43:23;19.15;;;4.07;;
62554;SDS011;48610;52.144;8.624;2023-04-25T02:46:24;24.30;;;4.47;;
62554;SDS011;48610;52.144;8.624;2023-04-25T02:49:24;15.02;;;4.07;;
62554;SDS011;48610;52.144;8.624;2023-04-25T02:52:25;15.60;;;4.60;;
62554;SDS011;48610;52.144;8.624;2023-04-25T02:55:25;21.45;;;4.47;;
62554;SDS011;48610;52.144;8.624;2023-04-25T02:58:26;15.50;;;4.53;;
62554;SDS011;48610;52.144;8.624;2023-04-25T03:01:27;19.02;;;4.55;;
62554;SDS011;48610;52.144;8.624;2023-04-25T03:04:28;16.73;;;4.85;;
62554;SDS011;48610;52.144;8.624;2023-04-25T03:07:28;16.83;;;4.32;;
62554;SDS011;48610;52.144;8.624;2023-04-25T03:10:29;17.70;;;4.50;;
62554;SDS011;48610;52.144;8.624;2023-04-25T03:13:29;22.17;;;5.35;;
62554;SDS011;48610;52.144;8.624;2023-04-25T03:16:30;18.10;;;4.78;;
62554;SDS011;48610;52.144;8.624;2023-04-25T03:19:31;17.92;;;4.82;;
62554;SDS011;48610;52.144;8.624;2023-04-25T03:22:32;18.65;;;4.28;;
62554;SDS011;48610;52.144;8.624;2023-04-25T03:25:32;21.55;;;4.72;;
62554;SDS011;48610;52.144;8.624;2023-04-25T03:28:33;18.13;;;4.90;;
62554;SDS011;48610;52.144;8.624;2023-04-25T03:31:33;34.47;;;5.47;;
62554;SDS011;48610;52.144;8.624;2023-04-25T03:34:34;24.02;;;5.00;;
62554;SDS011;48610;52.144;8.624;2023-04-25T03:37:34;16.48;;;4.88;;
62554;SDS011;48610;52.144;8.624;2023-04-25T03:40:35;33.35;;;5.60;;
62554;SDS011;48610;52.144;8.624;2023-04-25T03:43:35;22.33;;;5.13;;
62554;SDS011;48610;52.144;8.624;2023-04-25T03:46:36;27.90;;;5.40;;
62554;SDS011;48610;52.144;8.624;2023-04-25T03:49:36;19.63;;;4.82;;
62554;SDS011;48610;52.144;8.624;2023-04-25T03:52:37;23.98;;;6.35;;
62554;SDS011;48610;52.144;8.624;2023-04-25T03:55:38;19.40;;;5.05;;
62554;SDS011;48610;52.144;8.624;2023-04-25T03:58:38;24.85;;;5.40;;
62554;SDS011;48610;52.144;8.624;2023-04-25T04:01:39;18.90;;;5.10;;
62554;SDS011;48610;52.144;8.624;2023-04-25T04:04:39;21.77;;;4.88;;
62554;SDS011;48610;52.144;8.624;2023-04-25T04:07:40;26.25;;;5.18;;
62554;SDS011;48610;52.144;8.624;2023-04-25T04:10:42;22.20;;;5.32;;
62554;SDS011;48610;52.144;8.624;2023-04-25T04:13:43;22.88;;;5.18;;
62554;SDS011;48610;52.144;8.624;2023-04-25T04:16:43;25.20;;;5.15;;
62554;SDS011;48610;52.144;8.624;2023-04-25T04:19:44;19.50;;;4.97;;
62554;SDS011;48610;52.144;8.624;2023-04-25T04:22:45;27.30;;;5.18;;
62554;SDS011;48610;52.144;8.624;2023-04-25T04:25:46;19.08;;;5.05;;
62554;SDS011;48610;52.144;8.624;2023-04-25T04:28:47;25.35;;;5.05;;
62554;SDS011;48610;52.144;8.624;2023-04-25T04:31:48;21.92;;;5.40;;
62554;SDS011;48610;52.144;8.624;2023-04-25T04:34:50;20.05;;;5.30;;
62554;SDS011;48610;52.144;8.624;2023-04-25T04:37:52;24.10;;;4.97;;
62554;SDS011;48610;52.144;8.624;2023-04-25T04:40:53;23.52;;;5.25;;
62554;SDS011;48610;52.144;8.624;2023-04-25T04:43:53;22.30;;;5.40;;
62554;SDS011;48610;52.144;8.624;2023-04-25T04:46:55;20.23;;;4.68;;
62554;SDS011;48610;52.144;8.624;2023-04-25T04:49:56;26.92;;;5.20;;
62554;SDS011;48610;52.144;8.624;2023-04-25T04:52:57;17.05;;;5.25;;
62554;SDS011;48610;52.144;8.624;2023-04-25T04:55:58;20.05;;;4.95;;
62554;SDS011;48610;52.144;8.624;2023-04-25T04:58:58;12.55;;;4.35;;
62554;SDS011;48610;52.144;8.624;2023-04-25T05:01:59;13.55;;;4.10;;
62554;SDS011;48610;52.144;8.624;2023-04-25T05:05:00;19.70;;;5.10;;
62554;SDS011;48610;52.144;8.624;2023-04-25T05:08:00;23.50;;;5.22;;
62554;SDS011;48610;52.144;8.624;2023-04-25T05:11:01;14.75;;;4.43;;
62554;SDS011;48610;52.144;8.624;2023-04-25T05:14:01;22.30;;;5.93;;
62554;SDS011;48610;52.144;8.624;2023-04-25T05:17:02;21.10;;;5.03;;
62554;SDS011;48610;52.144;8.624;2023-04-25T05:20:08;18.70;;;4.72;;
62554;SDS011;48610;52.144;8.624;2023-04-25T05:23:09;16.95;;;4.80;;
62554;SDS011;48610;52.144;8.624;2023-04-25T05:26:10;16.75;;;5.40;;
62554;SDS011;48610;52.144;8.624;2023-04-25T05:29:13;22.05;;;5.50;;
62554;SDS011;48610;52.144;8.624;2023-04-25T05:32:14;22.98;;;5.30;;
62554;SDS011;48610;52.144;8.624;2023-04-25T05:35:15;17.40;;;5.00;;
62554;SDS011;48610;52.144;8.624;2023-04-25T05:38:15;21.65;;;4.93;;
62554;SDS011;48610;52.144;8.624;2023-04-25T05:41:16;15.63;;;4.72;;
62554;SDS011;48610;52.144;8.624;2023-04-25T05:44:17;19.05;;;5.45;;
62554;SDS011;48610;52.144;8.624;2023-04-25T05:47:17;16.95;;;4.80;;
62554;SDS011;48610;52.144;8.624;2023-04-25T05:50:18;18.20;;;5.05;;
62554;SDS011;48610;52.144;8.624;2023-04-25T05:53:19;19.15;;;4.60;;
62554;SDS011;48610;52.144;8.624;2023-04-25T05:56:20;20.65;;;5.28;;
62554;SDS011;48610;52.144;8.624;2023-04-25T05:59:21;16.48;;;4.90;;
62554;SDS011;48610;52.144;8.624;2023-04-25T06:02:21;15.90;;;4.28;;
62554;SDS011;48610;52.144;8.624;2023-04-25T06:05:22;23.27;;;4.97;;
62554;SDS011;48610;52.144;8.624;2023-04-25T06:08:22;23.42;;;5.65;;
62554;SDS011;48610;52.144;8.624;2023-04-25T06:11:23;18.58;;;4.70;;
62554;SDS011;48610;52.144;8.624;2023-04-25T06:14:23;9.82;;;4.10;;
62554;SDS011;48610;52.144;8.624;2023-04-25T06:17:24;11.63;;;4.53;;
62554;SDS011;48610;52.144;8.624;2023-04-25T06:20:25;19.40;;;4.97;;
62554;SDS011;48610;52.144;8.624;2023-04-25T06:23:25;16.52;;;4.35;;
62554;SDS011;48610;52.144;8.624;2023-04-25T06:26:26;22.73;;;5.00;;
62554;SDS011;48610;52.144;8.624;2023-04-25T06:29:27;24.50;;;4.72;;
62554;SDS011;48610;52.144;8.624;2023-04-25T06:32:27;18.83;;;4.53;;
62554;SDS011;48610;52.144;8.624;2023-04-25T06:35:29;15.75;;;4.00;;
62554;SDS011;48610;52.144;8.624;2023-04-25T06:38:30;20.33;;;4.65;;
62554;SDS011;48610;52.144;8.624;2023-04-25T06:41:31;18.33;;;4.75;;
62554;SDS011;48610;52.144;8.624;2023-04-25T06:44:31;14.32;;;4.30;;
62554;SDS011;48610;52.144;8.624;2023-04-25T06:47:32;20.92;;;4.82;;
62554;SDS011;48610;52.144;8.624;2023-04-25T06:50:33;17.73;;;4.68;;
62554;SDS011;48610;52.144;8.624;2023-04-25T06:53:33;13.90;;;5.32;;
62554;SDS011;48610;52.144;8.624;2023-04-25T06:56:34;16.95;;;4.18;;
62554;SDS011;48610;52.144;8.624;2023-04-25T06:59:34;21.98;;;4.75;;
62554;SDS011;48610;52.144;8.624;2023-04-25T07:02:35;17.50;;;4.18;;
62554;SDS011;48610;52.144;8.624;2023-04-25T07:05:36;23.73;;;4.00;;
62554;SDS011;48610;52.144;8.624;2023-04-25T07:08:36;19.75;;;4.18;;
62554;SDS011;48610;52.144;8.624;2023-04-25T07:11:37;11.77;;;3.88;;
62554;SDS011;48610;52.144;8.624;2023-04-25T07:14:37;15.27;;;3.63;;
62554;SDS011;48610;52.144;8.624;2023-04-25T07:17:39;19.90;;;4.15;;
62554;SDS011;48610;52.144;8.624;2023-04-25T07:20:39;23.35;;;4.72;;
62554;SDS011;48610;52.144;8.624;2023-04-25T07:23:40;20.73;;;4.55;;
62554;SDS011;48610;52.144;8.624;2023-04-25T07:26:41;27.10;;;4.10;;
62554;SDS011;48610;52.144;8.624;2023-04-25T07:29:41;21.10;;;4.32;;
62554;SDS011;48610;52.144;8.624;2023-04-25T07:32:42;15.77;;;3.83;;
62554;SDS011;48610;52.144;8.624;2023-04-25T07:35:42;16.92;;;3.63;;
62554;SDS011;48610;52.144;8.624;2023-04-25T07:38:43;12.98;;;3.85;;
62554;SDS011;48610;52.144;8.624;2023-04-25T07:41:44;19.45;;;4.05;;
62554;SDS011;48610;52.144;8.624;2023-04-25T07:44:44;13.52;;;3.53;;
62554;SDS011;48610;52.144;8.624;2023-04-25T07:47:45;11.13;;;3.30;;
62554;SDS011;48610;52.144;8.624;2023-04-25T07:50:46;16.25;;;3.58;;
62554;SDS011;48610;52.144;8.624;2023-04-25T07:53:46;12.65;;;3.40;;
62554;SDS011;48610;52.144;8.624;2023-04-25T07:56:47;17.98;;;3.30;;
62554;SDS011;48610;52.144;8.624;2023-04-25T07:59:47;14.02;;;3.72;;
62554;SDS011;48610;52.144;8.624;2023-04-25T08:02:48;16.00;;;3.45;;
62554;SDS011;48610;52.144;8.624;2023-04-25T08:05:51;17.15;;;3.65;;
62554;SDS011;48610;52.144;8.624;2023-04-25T08:08:52;16.27;;;3.70;;
62554;SDS011;48610;52.144;8.624;2023-04-25T08:11:52;10.18;;;3.47;;
62554;SDS011;48610;52.144;8.624;2023-04-25T08:14:53;10.98;;;3.20;;
62554;SDS011;48610;52.144;8.624;2023-04-25T08:17:54;9.65;;;3.17;;
62554;SDS011;48610;52.144;8.624;2023-04-25T08:20:54;19.90;;;3.58;;
62554;SDS011;48610;52.144;8.624;2023-04-25T08:23:55;11.07;;;3.20;;
62554;SDS011;48610;52.144;8.624;2023-04-25T08:26:57;13.88;;;3.20;;
62554;SDS011;48610;52.144;8.624;2023-04-25T08:29:58;11.23;;;3.45;;
62554;SDS011;48610;52.144;8.624;2023-04-25T08:32:59;15.35;;;3.15;;
62554;SDS011;48610;52.144;8.624;2023-04-25T08:36:00;13.23;;;3.20;;
62554;SDS011;48610;52.144;8.624;2023-04-25T08:39:00;21.73;;;4.15;;
62554;SDS011;48610;52.144;8.624;2023-04-25T08:42:02;11.07;;;2.85;;
62554;SDS011;48610;52.144;8.624;2023-04-25T08:45:08;12.57;;;3.53;;
62554;SDS011;48610;52.144;8.624;2023-04-25T08:48:10;15.73;;;3.13;;
62554;SDS011;48610;52.144;8.624;2023-04-25T08:51:15;11.93;;;2.53;;
62554;SDS011;48610;52.144;8.624;2023-04-25T08:54:21;12.48;;;3.13;;
62554;SDS011;48610;52.144;8.624;2023-04-25T08:57:26;9.10;;;2.45;;
62554;SDS011;48610;52.144;8.624;2023-04-25T09:00:27;11.70;;;3.28;;
62554;SDS011;48610;52.144;8.624;2023-04-25T09:03:28;13.27;;;3.30;;
62554;SDS011;48610;52.144;8.624;2023-04-25T09:06:29;10.65;;;2.38;;
62554;SDS011;48610;52.144;8.624;2023-04-25T09:09:30;12.30;;;3.33;;
62554;SDS011;48610;52.144;8.624;2023-04-25T09:12:31;17.02;;;3.10;;
62554;SDS011;48610;52.144;8.624;2023-04-25T09:15:32;7.60;;;3.08;;
62554;SDS011;48610;52.144;8.624;2023-04-25T09:18:34;11.68;;;2.88;;
62554;SDS011;48610;52.144;8.624;2023-04-25T09:21:35;14.82;;;3.30;;
62554;SDS011;48610;52.144;8.624;2023-04-25T09:24:37;7.50;;;2.58;;
62554;SDS011;48610;52.144;8.624;2023-04-25T09:27:50;12.52;;;3.28;;
62554;SDS011;48610;52.144;8.624;2023-04-25T09:30:55;9.35;;;2.88;;
62554;SDS011;48610;52.144;8.624;2023-04-25T09:33:59;6.57;;;2.60;;
62554;SDS011;48610;52.144;8.624;2023-04-25T09:37:03;10.73;;;2.80;;
62554;SDS011;48610;52.144;8.624;2023-04-25T09:40:04;11.15;;;3.10;;
62554;SDS011;48610;52.144;8.624;2023-04-25T09:43:17;8.98;;;2.40;;
62554;SDS011;48610;52.144;8.624;2023-04-25T09:46:18;12.60;;;2.83;;
62554;SDS011;48610;52.144;8.624;2023-04-25T09:49:21;10.55;;;2.22;;
62554;SDS011;48610;52.144;8.624;2023-04-25T09:52:22;11.25;;;2.92;;
62554;SDS011;48610;52.144;8.624;2023-04-25T09:55:24;10.15;;;2.33;;
62554;SDS011;48610;52.144;8.624;2023-04-25T09:58:25;6.15;;;2.33;;
62554;SDS011;48610;52.144;8.624;2023-04-25T10:01:30;10.05;;;2.53;;
62554;SDS011;48610;52.144;8.624;2023-04-25T10:04:31;9.45;;;2.92;;
62554;SDS011;48610;52.144;8.624;2023-04-25T10:07:35;7.78;;;2.55;;
62554;SDS011;48610;52.144;8.624;2023-04-25T10:10:38;6.70;;;2.30;;
62554;SDS011;48610;52.144;8.624;2023-04-25T10:13:40;9.07;;;2.10;;
62554;SDS011;48610;52.144;8.624;2023-04-25T10:16:41;10.55;;;1.95;;
62554;SDS011;48610;52.144;8.624;2023-04-25T10:19:42;6.25;;;1.90;;
62554;SDS011;48610;52.144;8.624;2023-04-25T10:22:44;9.90;;;2.53;;
62554;SDS011;48610;52.144;8.624;2023-04-25T10:25:45;4.25;;;1.92;;
62554;SDS011;48610;52.144;8.624;2023-04-25T10:29:04;13.38;;;2.45;;
62554;SDS011;48610;52.144;8.624;2023-04-25T10:32:05;7.88;;;2.50;;
62554;SDS011;48610;52.144;8.624;2023-04-25T10:35:13;12.20;;;3.08;;
62554;SDS011;48610;52.144;8.624;2023-04-25T10:38:18;11.18;;;2.05;;
62554;SDS011;48610;52.144;8.624;2023-04-25T10:41:19;6.30;;;2.60;;
62554;SDS011;48610;52.144;8.624;2023-04-25T10:44:21;8.02;;;2.78;;
62554;SDS011;48610;52.144;8.624;2023-04-25T10:47:23;5.90;;;1.83;;
62554;SDS011;48610;52.144;8.624;2023-04-25T10:50:44;5.57;;;2.15;;
62554;SDS011;48610;52.144;8.624;2023-04-25T10:53:45;10.05;;;2.75;;
62554;SDS011;48610;52.144;8.624;2023-04-25T10:56:48;7.13;;;2.28;;
62554;SDS011;48610;52.144;8.624;2023-04-25T10:59:50;6.63;;;2.15;;
62554;SDS011;48610;52.144;8.624;2023-04-25T11:02:58;11.43;;;2.53;;
62554;SDS011;48610;52.144;8.624;2023-04-25T11:05:59;7.25;;;2.60;;
62554;SDS011;48610;52.144;8.624;2023-04-25T11:09:01;10.00;;;2.92;;
62554;SDS011;48610;52.144;8.624;2023-04-25T11:12:03;9.88;;;2.67;;
62554;SDS011;48610;52.144;8.624;2023-04-25T11:15:06;6.43;;;2.35;;
62554;SDS011;48610;52.144;8.624;2023-04-25T11:18:07;9.40;;;2.53;;
62554;SDS011;48610;52.144;8.624;2023-04-25T11:21:08;4.95;;;2.13;;
62554;SDS011;48610;52.144;8.624;2023-04-25T11:24:09;7.28;;;2.83;;
62554;SDS011;48610;52.144;8.624;2023-04-25T11:27:11;7.22;;;2.42;;
62554;SDS011;48610;52.144;8.624;2023-04-25T11:30:13;7.18;;;2.00;;
62554;SDS011;48610;52.144;8.624;2023-04-25T11:33:15;8.30;;;2.97;;
62554;SDS011;48610;52.144;8.624;2023-04-25T11:36:16;5.47;;;2.40;;
62554;SDS011;48610;52.144;8.624;2023-04-25T11:39:17;5.60;;;2.58;;
62554;SDS011;48610;52.144;8.624;2023-04-25T11:42:21;5.93;;;2.38;;
62554;SDS011;48610;52.144;8.624;2023-04-25T11:45:22;7.93;;;2.38;;
62554;SDS011;48610;52.144;8.624;2023-04-25T11:48:23;11.35;;;2.13;;
62554;SDS011;48610;52.144;8.624;2023-04-25T11:51:24;4.68;;;2.33;;
62554;SDS011;48610;52.144;8.624;2023-04-25T11:54:25;7.57;;;2.22;;
62554;SDS011;48610;52.144;8.624;2023-04-25T11:57:26;7.00;;;2.10;;
62554;SDS011;48610;52.144;8.624;2023-04-25T12:00:26;5.88;;;2.05;;
62554;SDS011;48610;52.144;8.624;2023-04-25T12:03:29;17.25;;;2.60;;
62554;SDS011;48610;52.144;8.624;2023-04-25T12:06:32;5.75;;;1.98;;
62554;SDS011;48610;52.144;8.624;2023-04-25T12:09:38;8.27;;;1.88;;
62554;SDS011;48610;52.144;8.624;2023-04-25T12:12:44;6.57;;;1.95;;
62554;SDS011;48610;52.144;8.624;2023-04-25T12:15:46;6.60;;;2.35;;
62554;SDS011;48610;52.144;8.624;2023-04-25T12:18:47;5.30;;;1.95;;
62554;SDS011;48610;52.144;8.624;2023-04-25T12:21:48;5.75;;;2.28;;
62554;SDS011;48610;52.144;8.624;2023-04-25T12:24:49;5.35;;;2.38;;
62554;SDS011;48610;52.144;8.624;2023-04-25T12:27:50;5.28;;;2.20;;
62554;SDS011;48610;52.144;8.624;2023-04-25T12:33:54;6.05;;;2.35;;
62554;SDS011;48610;52.144;8.624;2023-04-25T12:36:57;16.25;;;2.20;;
62554;SDS011;48610;52.144;8.624;2023-04-25T12:39:57;9.15;;;2.35;;
62554;SDS011;48610;52.144;8.624;2023-04-25T12:42:58;8.57;;;2.47;;
62554;SDS011;48610;52.144;8.624;2023-04-25T12:45:58;7.13;;;2.88;;
62554;SDS011;48610;52.144;8.624;2023-04-25T12:48:59;8.38;;;2.40;;
62554;SDS011;48610;52.144;8.624;2023-04-25T12:52:00;4.43;;;2.90;;
62554;SDS011;48610;52.144;8.624;2023-04-25T12:55:00;6.65;;;3.28;;
62554;SDS011;48610;52.144;8.624;2023-04-25T12:58:01;3.95;;;2.42;;
62554;SDS011;48610;52.144;8.624;2023-04-25T13:01:03;5.28;;;2.20;;
62554;SDS011;48610;52.144;8.624;2023-04-25T13:04:03;7.50;;;2.67;;
62554;SDS011;48610;52.144;8.624;2023-04-25T13:07:04;7.13;;;2.25;;
62554;SDS011;48610;52.144;8.624;2023-04-25T13:10:05;7.45;;;2.42;;
62554;SDS011;48610;52.144;8.624;2023-04-25T13:13:06;7.43;;;2.22;;
62554;SDS011;48610;52.144;8.624;2023-04-25T13:16:07;7.22;;;3.15;;
62554;SDS011;48610;52.144;8.624;2023-04-25T13:19:08;8.25;;;2.30;;
62554;SDS011;48610;52.144;8.624;2023-04-25T13:22:11;6.88;;;2.25;;
62554;SDS011;48610;52.144;8.624;2023-04-25T13:25:12;6.07;;;2.00;;
62554;SDS011;48610;52.144;8.624;2023-04-25T13:28:14;4.00;;;1.60;;
62554;SDS011;48610;52.144;8.624;2023-04-25T13:31:15;5.38;;;1.25;;
62554;SDS011;48610;52.144;8.624;2023-04-25T13:34:15;5.22;;;1.70;;
62554;SDS011;48610;52.144;8.624;2023-04-25T13:37:16;6.03;;;2.28;;
62554;SDS011;48610;52.144;8.624;2023-04-25T13:40:17;5.88;;;2.20;;
62554;SDS011;48610;52.144;8.624;2023-04-25T13:43:18;6.20;;;2.65;;
62554;SDS011;48610;52.144;8.624;2023-04-25T13:46:22;4.30;;;2.50;;
62554;SDS011;48610;52.144;8.624;2023-04-25T13:49:23;5.93;;;2.35;;
62554;SDS011;48610;52.144;8.624;2023-04-25T13:52:23;4.28;;;2.28;;
62554;SDS011;48610;52.144;8.624;2023-04-25T13:55:24;7.97;;;2.38;;
62554;SDS011;48610;52.144;8.624;2023-04-25T13:58:24;5.30;;;2.05;;
62554;SDS011;48610;52.144;8.624;2023-04-25T14:01:25;2.70;;;2.22;;
62554;SDS011;48610;52.144;8.624;2023-04-25T14:04:27;8.27;;;2.30;;
62554;SDS011;48610;52.144;8.624;2023-04-25T14:07:28;4.95;;;1.92;;
62554;SDS011;48610;52.144;8.624;2023-04-25T14:10:30;5.68;;;2.13;;
62554;SDS011;48610;52.144;8.624;2023-04-25T14:13:30;6.43;;;2.10;;
62554;SDS011;48610;52.144;8.624;2023-04-25T14:16:31;3.22;;;2.47;;
62554;SDS011;48610;52.144;8.624;2023-04-25T14:19:31;4.35;;;2.20;;
62554;SDS011;48610;52.144;8.624;2023-04-25T14:22:32;5.00;;;2.50;;
62554;SDS011;48610;52.144;8.624;2023-04-25T14:25:33;6.18;;;3.22;;
62554;SDS011;48610;52.144;8.624;2023-04-25T14:28:33;6.82;;;2.80;;
62554;SDS011;48610;52.144;8.624;2023-04-25T14:31:34;6.38;;;2.45;;
62554;SDS011;48610;52.144;8.624;2023-04-25T14:34:35;10.95;;;2.22;;
62554;SDS011;48610;52.144;8.624;2023-04-25T14:37:36;4.60;;;2.72;;
62554;SDS011;48610;52.144;8.624;2023-04-25T14:40:36;6.57;;;2.30;;
62554;SDS011;48610;52.144;8.624;2023-04-25T14:43:38;5.00;;;1.95;;
62554;SDS011;48610;52.144;8.624;2023-04-25T14:46:40;4.82;;;2.50;;
62554;SDS011;48610;52.144;8.624;2023-04-25T14:49:41;4.93;;;1.88;;
62554;SDS011;48610;52.144;8.624;2023-04-25T14:52:42;3.95;;;1.90;;
62554;SDS011;48610;52.144;8.624;2023-04-25T14:55:43;6.82;;;2.15;;
62554;SDS011;48610;52.144;8.624;2023-04-25T14:58:43;6.05;;;1.75;;
62554;SDS011;48610;52.144;8.624;2023-04-25T15:01:45;4.63;;;1.90;;
62554;SDS011;48610;52.144;8.624;2023-04-25T15:04:46;5.95;;;2.22;;
62554;SDS011;48610;52.144;8.624;2023-04-25T15:07:47;4.63;;;1.80;;
62554;SDS011;48610;52.144;8.624;2023-04-25T15:10:47;4.55;;;1.55;;
62554;SDS011;48610;52.144;8.624;2023-04-25T15:13:48;5.63;;;1.88;;
62554;SDS011;48610;52.144;8.624;2023-04-25T15:16:49;4.47;;;1.77;;
62554;SDS011;48610;52.144;8.624;2023-04-25T15:19:50;2.30;;;1.60;;
62554;SDS011;48610;52.144;8.624;2023-04-25T15:22:50;2.28;;;1.70;;
62554;SDS011;48610;52.144;8.624;2023-04-25T15:25:51;5.65;;;1.80;;
62554;SDS011;48610;52.144;8.624;2023-04-25T15:28:52;7.13;;;2.05;;
62554;SDS011;48610;52.144;8.624;2023-04-25T15:31:53;3.55;;;1.65;;
62554;SDS011;48610;52.144;8.624;2023-04-25T15:34:54;3.50;;;1.83;;
62554;SDS011;48610;52.144;8.624;2023-04-25T15:37:54;2.30;;;1.45;;
62554;SDS011;48610;52.144;8.624;2023-04-25T15:40:55;5.70;;;2.05;;
62554;SDS011;48610;52.144;8.624;2023-04-25T15:43:55;5.95;;;1.65;;
62554;SDS011;48610;52.144;8.624;2023-04-25T15:46:58;5.90;;;1.80;;
62554;SDS011;48610;52.144;8.624;2023-04-25T15:49:59;6.25;;;3.03;;
62554;SDS011;48610;52.144;8.624;2023-04-25T15:53:00;5.32;;;1.90;;
62554;SDS011;48610;52.144;8.624;2023-04-25T15:56:01;5.88;;;1.92;;
62554;SDS011;48610;52.144;8.624;2023-04-25T15:59:03;5.30;;;2.05;;
62554;SDS011;48610;52.144;8.624;2023-04-25T16:02:04;4.43;;;2.30;;
62554;SDS011;48610;52.144;8.624;2023-04-25T16:05:04;7.18;;;2.00;;
62554;SDS011;48610;52.144;8.624;2023-04-25T16:08:05;4.05;;;1.77;;
62554;SDS011;48610;52.144;8.624;2023-04-25T16:11:06;2.97;;;1.95;;
62554;SDS011;48610;52.144;8.624;2023-04-25T16:14:07;2.53;;;1.40;;
62554;SDS011;48610;52.144;8.624;2023-04-25T16:17:07;4.45;;;1.83;;
62554;SDS011;48610;52.144;8.624;2023-04-25T16:20:08;3.08;;;1.90;;
62554;SDS011;48610;52.144;8.624;2023-04-25T16:23:11;3.85;;;1.92;;
62554;SDS011;48610;52.144;8.624;2023-04-25T16:26:12;2.72;;;1.60;;
62554;SDS011;48610;52.144;8.624;2023-04-25T16:29:12;4.90;;;2.67;;
62554;SDS011;48610;52.144;8.624;2023-04-25T16:32:16;4.32;;;2.63;;
62554;SDS011;48610;52.144;8.624;2023-04-25T16:35:17;7.05;;;3.15;;
62554;SDS011;48610;52.144;8.624;2023-04-25T16:38:18;4.53;;;2.80;;
62554;SDS011;48610;52.144;8.624;2023-04-25T16:41:18;6.15;;;2.85;;
62554;SDS011;48610;52.144;8.624;2023-04-25T16:44:19;5.13;;;2.72;;
62554;SDS011;48610;52.144;8.624;2023-04-25T16:47:19;4.97;;;2.65;;
62554;SDS011;48610;52.144;8.624;2023-04-25T16:50:21;3.75;;;2.53;;
62554;SDS011;48610;52.144;8.624;2023-04-25T16:53:21;5.28;;;2.63;;
62554;SDS011;48610;52.144;8.624;2023-04-25T16:56:22;8.82;;;2.50;;
62554;SDS011;48610;52.144;8.624;2023-04-25T16:59:23;6.70;;;2.92;;
62554;SDS011;48610;52.144;8.624;2023-04-25T17:02:24;5.38;;;2.35;;
62554;SDS011;48610;52.144;8.624;2023-04-25T17:05:25;3.80;;;2.35;;
62554;SDS011;48610;52.144;8.624;2023-04-25T17:08:26;5.70;;;2.50;;
62554;SDS011;48610;52.144;8.624;2023-04-25T17:11:28;5.25;;;2.30;;
62554;SDS011;48610;52.144;8.624;2023-04-25T17:14:29;8.23;;;2.53;;
62554;SDS011;48610;52.144;8.624;2023-04-25T17:17:31;5.88;;;2.88;;
62554;SDS011;48610;52.144;8.624;2023-04-25T17:20:32;3.40;;;1.90;;
62554;SDS011;48610;52.144;8.624;2023-04-25T17:23:33;2.85;;;1.85;;
62554;SDS011;48610;52.144;8.624;2023-04-25T17:26:37;8.15;;;2.55;;
62554;SDS011;48610;52.144;8.624;2023-04-25T17:29:38;11.93;;;2.70;;
62554;SDS011;48610;52.144;8.624;2023-04-25T17:32:38;6.78;;;3.30;;
62554;SDS011;48610;52.144;8.624;2023-04-25T17:35:39;9.63;;;2.83;;
62554;SDS011;48610;52.144;8.624;2023-04-25T17:38:40;6.50;;;2.33;;
62554;SDS011;48610;52.144;8.624;2023-04-25T17:41:40;3.95;;;2.58;;
62554;SDS011;48610;52.144;8.624;2023-04-25T17:44:41;4.28;;;2.30;;
62554;SDS011;48610;52.144;8.624;2023-04-25T17:47:42;9.07;;;2.47;;
62554;SDS011;48610;52.144;8.624;2023-04-25T17:50:42;4.65;;;1.90;;
62554;SDS011;48610;52.144;8.624;2023-04-25T17:53:43;5.32;;;1.98;;
62554;SDS011;48610;52.144;8.624;2023-04-25T17:56:43;3.65;;;1.70;;
62554;SDS011;48610;52.144;8.624;2023-04-25T17:59:44;4.28;;;1.65;;
62554;SDS011;48610;52.144;8.624;2023-04-25T18:02:45;5.80;;;2.20;;
62554;SDS011;48610;52.144;8.624;2023-04-25T18:05:47;8.35;;;2.40;;